createdAt,value
2023-03-12T10:47:39.495Z,3.81
2023-03-12T10:48:42.546Z,3.70
2023-03-12T10:49:49.679Z,3.63
2023-03-12T10:51:06.880Z,3.50
2023-03-12T10:52:16.113Z,3.34
2023-03-12T10:53:29.792Z,3.25
2023-03-12T10:54:39.993Z,3.18
2023-03-12T10:55:41.476Z,3.21
2023-03-12T10:56:50.535Z,3.37
2023-03-12T10:57:53.439Z,3.58
2023-03-12T10:58:55.108Z,3.77
2023-03-12T11:00:13.400Z,3.98
2023-03-12T11:01:20.951Z,4.20
2023-03-12T11:02:32.133Z,4.37
2023-03-12T11:03:33.661Z,4.56
2023-03-12T11:04:35.249Z,4.71
2023-03-12T11:05:48.493Z,4.86
2023-03-12T11:07:11.765Z,5.03
2023-03-12T11:08:35.996Z,5.16
2023-03-12T11:09:38.272Z,5.25
2023-03-12T11:10:45.948Z,5.30
2023-03-12T11:11:49.672Z,5.37
2023-03-12T11:13:00.960Z,5.44
2023-03-12T11:14:17.795Z,5.55
2023-03-12T11:15:31.426Z,5.67
2023-03-12T11:16:32.951Z,5.61
2023-03-12T11:17:34.474Z,5.48
2023-03-12T11:18:37.216Z,5.30
2023-03-12T11:19:40.136Z,5.14
2023-03-12T11:20:41.669Z,5.02
2023-03-12T11:21:56.641Z,4.91
2023-03-12T11:23:13.569Z,4.85
2023-03-12T11:24:15.444Z,4.79
2023-03-12T11:25:24.313Z,4.66
2023-03-12T11:26:50.566Z,4.49
2023-03-12T11:27:58.672Z,4.38
2023-03-12T11:29:28.961Z,4.34
2023-03-12T11:30:39.630Z,4.35
2023-03-12T11:31:49.628Z,4.37
2023-03-12T11:32:51.882Z,4.41
2023-03-12T11:34:00.447Z,4.43
2023-03-12T11:35:03.742Z,4.43
2023-03-12T11:36:19.608Z,4.44
2023-03-12T11:37:59.455Z,4.48
2023-03-12T11:39:16.101Z,4.59
2023-03-12T11:40:56.287Z,4.64
2023-03-12T11:42:27.508Z,5.02
2023-03-12T11:43:47.589Z,5.67
2023-03-12T11:45:04.486Z,6.20
2023-03-12T11:46:37.059Z,6.59
2023-03-12T11:47:57.273Z,6.75
2023-03-12T11:49:13.793Z,6.64
2023-03-12T11:50:43.644Z,6.42
2023-03-12T11:52:14.522Z,6.22
2023-03-12T11:53:43.494Z,6.03
2023-03-12T11:55:16.759Z,5.76
2023-03-12T11:56:50.829Z,5.47
2023-03-12T11:58:24.505Z,5.26
2023-03-12T11:59:41.894Z,5.12
2023-03-12T12:00:59.448Z,5.08
2023-03-12T12:02:04.043Z,5.09
2023-03-12T12:03:47.022Z,5.14
2023-03-12T12:05:22.828Z,5.29
2023-03-12T12:06:32.659Z,5.48
2023-03-12T12:07:49.328Z,5.59
2023-03-12T12:09:04.802Z,5.70
2023-03-12T12:10:25.132Z,5.84
2023-03-12T12:11:59.253Z,6.04
2023-03-12T12:13:23.138Z,6.25
2023-03-12T12:14:48.227Z,6.42
2023-03-12T12:16:05.491Z,6.56
2023-03-12T12:17:35.349Z,6.67
2023-03-12T12:19:04.952Z,6.78
2023-03-12T12:20:31.524Z,6.91
2023-03-12T12:21:48.318Z,6.97
2023-03-12T12:23:17.294Z,7.07
2023-03-12T12:24:53.571Z,7.24
2023-03-12T12:26:00.136Z,7.37
2023-03-12T12:27:01.545Z,7.48
2023-03-12T12:28:22.111Z,7.57
2023-03-12T12:29:28.979Z,7.68
2023-03-12T12:30:56.237Z,7.80
2023-03-12T12:32:01.416Z,7.95
2023-03-12T12:33:14.934Z,8.12
2023-03-12T12:34:30.101Z,8.23
2023-03-12T12:35:40.036Z,8.33
2023-03-12T12:36:47.968Z,8.52
2023-03-12T12:37:55.766Z,8.59
2023-03-12T12:39:17.183Z,8.58
2023-03-12T12:40:37.046Z,8.62
2023-03-12T12:41:44.548Z,8.71
2023-03-12T12:42:57.469Z,8.79
2023-03-12T12:44:02.582Z,8.87
2023-03-12T12:45:06.386Z,8.99
2023-03-12T12:46:19.389Z,9.16
2023-03-12T12:47:54.996Z,9.41
2023-03-12T12:49:30.375Z,9.70
2023-03-12T12:50:36.451Z,9.99
2023-03-12T12:51:49.088Z,10.16
2023-03-12T12:53:03.297Z,10.27
2023-03-12T12:54:17.782Z,10.33
2023-03-12T12:55:26.018Z,10.45
2023-03-12T12:56:37.870Z,10.36
2023-03-12T12:57:48.582Z,10.31
2023-03-12T12:59:10.897Z,10.31
2023-03-12T13:00:38.844Z,10.36
2023-03-12T13:01:41.937Z,10.43
2023-03-12T13:02:47.328Z,10.51
2023-03-12T13:03:50.151Z,10.63
2023-03-12T13:04:56.200Z,10.66
2023-03-12T13:06:04.398Z,10.61
2023-03-12T13:07:13.381Z,10.59
2023-03-12T13:08:44.388Z,10.62
2023-03-12T13:09:57.117Z,10.73
2023-03-12T13:11:16.302Z,10.84
2023-03-12T13:12:52.361Z,10.95
2023-03-12T13:14:03.148Z,11.02
2023-03-12T13:15:30.190Z,11.13
2023-03-12T13:16:36.039Z,11.30
2023-03-12T13:17:55.933Z,11.34
2023-03-12T13:19:23.291Z,11.39
2023-03-12T13:20:50.842Z,11.28
2023-03-12T13:22:23.795Z,11.16
2023-03-12T13:23:34.098Z,11.18
2023-03-12T13:25:04.611Z,11.25
2023-03-12T13:26:21.918Z,11.45
2023-03-12T13:27:36.480Z,11.49
2023-03-12T13:29:11.349Z,11.64
2023-03-12T13:30:32.547Z,11.75
2023-03-12T13:31:36.672Z,11.81
2023-03-12T13:32:58.860Z,11.93
2023-03-12T13:34:18.897Z,12.10
2023-03-12T13:35:20.372Z,12.31
2023-03-12T13:36:27.895Z,12.52
2023-03-12T13:37:47.161Z,12.76
2023-03-12T13:38:58.999Z,13.00
2023-03-12T13:40:01.471Z,13.14
2023-03-12T13:41:05.278Z,13.30
2023-03-12T13:42:22.189Z,13.51
2023-03-12T13:43:47.076Z,13.57
2023-03-12T13:44:48.957Z,13.65
2023-03-12T13:46:15.768Z,13.63
2023-03-12T13:47:29.693Z,13.68
2023-03-12T13:48:34.015Z,13.66
2023-03-12T13:49:53.444Z,13.58
2023-03-12T13:50:59.017Z,13.54
2023-03-12T13:52:10.669Z,13.64
2023-03-12T13:53:22.181Z,13.80
2023-03-12T13:54:29.084Z,14.02
2023-03-12T13:55:36.045Z,14.26
2023-03-12T13:56:38.737Z,14.43
2023-03-12T13:57:45.777Z,14.54
2023-03-12T13:58:56.595Z,14.67
2023-03-12T13:59:59.245Z,14.85
2023-03-12T14:01:05.299Z,14.80
2023-03-12T14:02:24.839Z,14.73
2023-03-12T14:03:26.299Z,14.84
2023-03-12T14:04:38.428Z,14.92
2023-03-12T14:06:06.377Z,14.80
2023-03-12T14:07:32.908Z,14.79
2023-03-12T14:08:40.681Z,14.70
2023-03-12T14:10:04.124Z,14.55
2023-03-12T14:11:42.327Z,14.42
2023-03-12T14:13:05.993Z,14.01
2023-03-12T14:14:31.299Z,13.98
2023-03-12T14:15:51.565Z,13.50
2023-03-12T14:16:59.160Z,12.98
2023-03-12T14:18:11.140Z,12.62
2023-03-12T14:19:15.499Z,12.39
2023-03-12T14:20:20.789Z,12.19
2023-03-12T14:21:23.579Z,11.99
2023-03-12T14:22:31.055Z,11.92
2023-03-12T14:23:38.117Z,11.86
2023-03-12T14:24:50.512Z,11.71
2023-03-12T14:25:58.973Z,11.51
2023-03-12T14:27:03.961Z,11.41
2023-03-12T14:28:18.039Z,11.41
2023-03-12T14:29:40.400Z,11.48
2023-03-12T14:30:47.597Z,11.34
2023-03-12T14:31:51.527Z,11.14
2023-03-12T14:32:56.299Z,10.85
2023-03-12T14:34:03.446Z,10.59
2023-03-12T14:35:04.925Z,10.32
2023-03-12T14:36:14.449Z,10.02
2023-03-12T14:37:23.722Z,9.71
2023-03-12T14:38:40.844Z,9.44
2023-03-12T14:40:03.612Z,9.19
2023-03-12T14:41:15.208Z,9.01
2023-03-12T14:42:29.448Z,8.70
2023-03-12T14:43:33.953Z,8.44
2023-03-12T14:44:39.057Z,8.20
2023-03-12T14:45:40.624Z,7.99
2023-03-12T14:46:54.575Z,7.81
2023-03-12T14:47:57.725Z,7.60
2023-03-12T14:48:59.184Z,7.41
2023-03-12T14:50:01.026Z,7.29
2023-03-12T14:51:04.940Z,7.09
2023-03-12T14:52:07.492Z,6.90
2023-03-12T14:53:18.782Z,6.77
2023-03-12T14:54:25.895Z,6.64
2023-03-12T14:55:27.385Z,6.50
2023-03-12T14:56:32.710Z,6.35
2023-03-12T14:57:34.393Z,6.21
2023-03-12T14:58:43.497Z,6.11
2023-03-12T14:59:54.975Z,6.02
2023-03-12T15:00:59.769Z,5.91
2023-03-12T15:02:15.927Z,5.85
2023-03-12T15:03:17.635Z,5.77
2023-03-12T15:04:22.226Z,5.70
2023-03-12T15:05:24.370Z,5.65
2023-03-12T15:06:35.881Z,5.60
2023-03-12T15:07:38.850Z,5.56
2023-03-12T15:08:43.874Z,5.50
2023-03-12T15:09:49.340Z,5.44
2023-03-12T15:10:54.739Z,5.39
2023-03-12T15:12:02.704Z,5.37
2023-03-12T15:13:04.679Z,5.34
2023-03-12T15:14:11.229Z,5.34
2023-03-12T15:15:42.195Z,5.30
2023-03-12T15:16:44.267Z,5.27
2023-03-12T15:17:45.852Z,5.26
2023-03-12T15:18:49.617Z,5.24
2023-03-12T15:19:54.153Z,5.21
2023-03-12T15:20:58.754Z,5.19
2023-03-12T15:22:01.064Z,5.15
2023-03-12T15:23:04.629Z,5.11
2023-03-12T15:24:12.552Z,5.10
2023-03-12T15:25:28.931Z,5.06
2023-03-12T15:26:33.856Z,5.01
2023-03-12T15:27:35.434Z,4.97
2023-03-12T15:28:37.766Z,4.93
2023-03-12T15:29:40.965Z,4.89
2023-03-12T15:30:43.454Z,4.86
2023-03-12T15:31:47.660Z,4.84
2023-03-12T15:33:10.457Z,4.82
2023-03-12T15:34:18.058Z,4.76
2023-03-12T15:35:25.486Z,4.73
2023-03-12T15:36:30.684Z,4.70
2023-03-12T15:37:40.374Z,4.67
2023-03-12T15:38:55.093Z,4.63
2023-03-12T15:39:57.256Z,4.60
2023-03-12T15:41:05.718Z,4.57
2023-03-12T15:42:09.844Z,4.53
2023-03-12T15:43:18.547Z,4.51
2023-03-12T15:44:25.603Z,4.48
2023-03-12T15:45:38.571Z,4.47
2023-03-12T15:46:45.288Z,4.45
2023-03-12T15:47:47.950Z,4.42
2023-03-12T15:48:54.001Z,4.39
2023-03-12T15:49:59.454Z,4.37
2023-03-12T15:51:01.728Z,4.34
2023-03-12T15:52:18.602Z,4.32
2023-03-12T15:53:28.249Z,4.30
2023-03-12T15:54:30.375Z,4.28
2023-03-12T15:55:35.155Z,4.26
2023-03-12T15:56:36.811Z,4.24
2023-03-12T15:57:46.722Z,4.21
2023-03-12T15:58:59.584Z,4.17
2023-03-12T16:00:08.250Z,4.14
2023-03-12T16:01:17.935Z,4.12
2023-03-12T16:02:35.908Z,4.08
2023-03-12T16:03:38.800Z,4.06
2023-03-12T16:04:40.295Z,4.03
2023-03-12T16:05:42.461Z,4.00
2023-03-12T16:06:48.281Z,3.98
2023-03-12T16:07:50.081Z,3.96
2023-03-12T16:09:00.577Z,3.93
2023-03-12T16:10:02.450Z,3.91
2023-03-12T16:11:05.555Z,3.89
2023-03-12T16:12:10.025Z,3.88
2023-03-12T16:13:15.097Z,3.87
2023-03-12T16:14:22.321Z,3.84
2023-03-12T16:15:35.449Z,3.81
2023-03-12T16:16:36.950Z,3.82
2023-03-12T16:17:38.513Z,3.80
2023-03-12T16:18:41.818Z,3.76
2023-03-12T16:19:43.394Z,3.72
2023-03-12T16:20:46.550Z,3.68
2023-03-12T16:21:48.880Z,3.65
2023-03-12T16:22:50.551Z,3.69
2023-03-12T16:23:52.320Z,3.74
2023-03-12T16:24:53.870Z,3.71
2023-03-12T16:25:55.871Z,3.67
2023-03-12T16:26:58.237Z,3.60
2023-03-12T16:28:02.640Z,3.54
2023-03-12T16:29:04.482Z,3.48
2023-03-12T16:30:14.168Z,3.44
2023-03-12T16:31:16.363Z,3.38
2023-03-12T16:32:17.975Z,3.35
2023-03-12T16:33:23.545Z,3.30
2023-03-12T16:34:27.522Z,3.27
2023-03-12T16:35:33.369Z,3.23
2023-03-12T16:36:36.217Z,3.19
2023-03-12T16:37:38.182Z,3.15
2023-03-12T16:38:39.834Z,3.12
2023-03-12T16:39:45.528Z,3.09
2023-03-12T16:40:49.064Z,3.06
2023-03-12T16:41:50.775Z,3.03
2023-03-12T16:42:54.057Z,3.01
2023-03-12T16:43:56.810Z,2.99
2023-03-12T16:44:58.597Z,2.96
2023-03-12T16:46:00.536Z,2.95
2023-03-12T16:47:02.474Z,2.93
2023-03-12T16:48:06.108Z,2.91
2023-03-12T16:49:14.769Z,2.89
2023-03-12T16:50:19.938Z,2.87
2023-03-12T16:51:21.728Z,2.88
2023-03-12T16:52:27.631Z,2.95
2023-03-12T16:53:29.488Z,3.08
2023-03-12T16:54:31.251Z,3.21
2023-03-12T16:55:46.986Z,3.32
2023-03-12T16:56:52.483Z,3.45
2023-03-12T16:57:59.990Z,3.54
2023-03-12T16:59:10.749Z,3.62
2023-03-12T17:00:15.637Z,3.70
2023-03-12T17:01:19.854Z,3.77
2023-03-12T17:02:22.314Z,3.83
2023-03-12T17:03:27.040Z,3.88
2023-03-12T17:04:28.595Z,3.93
2023-03-12T17:05:30.286Z,3.97
2023-03-12T17:06:32.442Z,4.02
2023-03-12T17:07:34.277Z,4.04
2023-03-12T17:08:36.011Z,4.08
2023-03-12T17:09:37.843Z,4.11
2023-03-12T17:10:39.569Z,4.14
2023-03-12T17:11:41.473Z,4.17
2023-03-12T17:12:43.908Z,4.20
2023-03-12T17:13:48.172Z,4.22
2023-03-12T17:14:50.990Z,4.24
2023-03-12T17:15:53.832Z,4.26
2023-03-12T17:16:55.732Z,4.27
2023-03-12T17:18:00.065Z,4.29
2023-03-12T17:19:02.004Z,4.30
2023-03-12T17:20:09.214Z,4.31
2023-03-12T17:21:13.628Z,4.33
2023-03-12T17:22:15.760Z,4.33
2023-03-12T17:23:17.370Z,4.34
2023-03-12T17:24:19.021Z,4.35
2023-03-12T17:25:25.265Z,4.35
2023-03-12T17:26:27.024Z,4.37
2023-03-12T17:27:28.520Z,4.37
2023-03-12T17:28:30.278Z,4.38
2023-03-12T17:29:32.331Z,4.40
2023-03-12T17:30:35.949Z,4.40
2023-03-12T17:31:37.873Z,4.41
2023-03-12T17:32:40.026Z,4.42
2023-03-12T17:33:42.726Z,4.42
2023-03-12T17:34:44.446Z,4.42
2023-03-12T17:35:46.335Z,4.41
2023-03-12T17:36:47.845Z,4.40
2023-03-12T17:37:50.487Z,4.40
2023-03-12T17:38:52.006Z,4.39
2023-03-12T17:39:53.699Z,4.39
2023-03-12T17:40:55.947Z,4.39
2023-03-12T17:41:57.537Z,4.38
2023-03-12T17:42:59.067Z,4.37
2023-03-12T17:44:02.958Z,4.37
2023-03-12T17:45:06.874Z,4.36
2023-03-12T17:46:09.254Z,4.35
2023-03-12T17:47:10.788Z,4.34
2023-03-12T17:48:12.432Z,4.33
2023-03-12T17:49:13.991Z,4.33
2023-03-12T17:50:15.721Z,4.32
2023-03-12T17:51:17.325Z,4.32
2023-03-12T17:52:18.870Z,4.31
2023-03-12T17:53:20.824Z,4.31
2023-03-12T17:54:22.472Z,4.30
2023-03-12T17:55:24.200Z,4.30
2023-03-12T17:56:25.633Z,4.29
2023-03-12T17:57:27.655Z,4.28
2023-03-12T17:58:29.232Z,4.27
2023-03-12T17:59:30.727Z,4.27
2023-03-12T18:00:32.858Z,4.26
2023-03-12T18:01:36.164Z,4.25
2023-03-12T18:02:39.940Z,4.25
2023-03-12T18:03:43.430Z,4.24
2023-03-12T18:04:45.421Z,4.23
2023-03-12T18:05:49.968Z,4.22
2023-03-12T18:06:51.770Z,4.21
2023-03-12T18:07:54.117Z,4.21
2023-03-12T18:08:55.725Z,4.20
2023-03-12T18:09:57.425Z,4.20
2023-03-12T18:11:00.979Z,4.20
2023-03-12T18:12:02.960Z,4.19
2023-03-12T18:13:04.950Z,4.18
2023-03-12T18:14:06.656Z,4.16
2023-03-12T18:15:12.623Z,4.15
2023-03-12T18:16:15.333Z,4.14
2023-03-12T18:17:17.550Z,4.13
2023-03-12T18:18:20.709Z,4.12
2023-03-12T18:19:23.004Z,4.11
2023-03-12T18:20:36.110Z,4.09
2023-03-12T18:21:39.757Z,4.07
2023-03-12T18:22:42.807Z,4.05
2023-03-12T18:23:45.506Z,4.04
2023-03-12T18:24:47.379Z,4.02
2023-03-12T18:25:49.122Z,3.99
2023-03-12T18:26:51.636Z,3.98
2023-03-12T18:27:54.805Z,3.96
2023-03-12T18:29:03.657Z,3.95
2023-03-12T18:30:07.828Z,3.94
2023-03-12T18:31:09.759Z,3.93
2023-03-12T18:32:11.379Z,3.92
2023-03-12T18:33:13.849Z,3.91
2023-03-12T18:34:15.686Z,3.89
2023-03-12T18:35:17.289Z,3.87
2023-03-12T18:36:19.716Z,3.85
2023-03-12T18:37:22.256Z,3.82
2023-03-12T18:38:24.057Z,3.79
2023-03-12T18:39:25.921Z,3.78
2023-03-12T18:40:28.678Z,3.76
2023-03-12T18:41:32.300Z,3.75
2023-03-12T18:42:34.299Z,3.73
2023-03-12T18:43:36.418Z,3.72
2023-03-12T18:44:38.586Z,3.70
2023-03-12T18:45:42.804Z,3.69
2023-03-12T18:46:45.016Z,3.69
2023-03-12T18:47:49.583Z,3.68
2023-03-12T18:48:52.310Z,3.68
2023-03-12T18:49:55.192Z,3.68
2023-03-12T18:50:57.608Z,3.69
2023-03-12T18:51:59.301Z,3.68
2023-03-12T18:53:01.039Z,3.69
2023-03-12T18:54:02.983Z,3.69
2023-03-12T18:55:04.997Z,3.69
2023-03-12T18:56:07.002Z,3.68
2023-03-12T18:57:09.675Z,3.67
2023-03-12T18:58:11.149Z,3.67
2023-03-12T18:59:14.246Z,3.66
2023-03-12T19:00:17.065Z,3.66
2023-03-12T19:01:19.268Z,3.64
2023-03-12T19:02:21.573Z,3.63
2023-03-12T19:03:24.415Z,3.62
2023-03-12T19:04:26.143Z,3.60
2023-03-12T19:05:27.789Z,3.58
2023-03-12T19:06:33.073Z,3.57
2023-03-12T19:07:43.556Z,3.55
2023-03-12T19:08:45.147Z,3.54
2023-03-12T19:09:46.962Z,3.53
2023-03-12T19:10:48.990Z,3.52
2023-03-12T19:11:50.437Z,3.51
2023-03-12T19:12:54.036Z,3.49
2023-03-12T19:13:56.056Z,3.48
2023-03-12T19:14:57.834Z,3.47
2023-03-12T19:16:01.506Z,3.46
2023-03-12T19:17:03.717Z,3.44
2023-03-12T19:18:05.716Z,3.42
2023-03-12T19:19:08.396Z,3.41
2023-03-12T19:20:13.417Z,3.41
2023-03-12T19:21:15.665Z,3.40
2023-03-12T19:22:17.260Z,3.40
2023-03-12T19:23:19.536Z,3.39
2023-03-12T19:24:21.247Z,3.39
2023-03-12T19:25:22.859Z,3.40
2023-03-12T19:26:24.512Z,3.40
2023-03-12T19:27:26.912Z,3.40
2023-03-12T19:28:30.876Z,3.42
2023-03-12T19:29:32.643Z,3.42
2023-03-12T19:30:34.193Z,3.42
2023-03-12T19:31:35.794Z,3.43
2023-03-12T19:32:43.856Z,3.43
2023-03-12T19:33:46.056Z,3.43
2023-03-12T19:34:48.894Z,3.44
2023-03-12T19:35:51.725Z,3.43
2023-03-12T19:36:53.363Z,3.43
2023-03-12T19:37:55.396Z,3.43
2023-03-12T19:38:56.924Z,3.42
2023-03-12T19:39:58.421Z,3.43
2023-03-12T19:40:59.995Z,3.42
2023-03-12T19:42:01.616Z,3.40
2023-03-12T19:43:03.207Z,3.39
2023-03-12T19:44:05.232Z,3.39
2023-03-12T19:45:07.446Z,3.39
2023-03-12T19:46:09.060Z,3.39
2023-03-12T19:47:10.694Z,3.38
2023-03-12T19:48:13.407Z,3.38
2023-03-12T19:49:14.874Z,3.38
2023-03-12T19:50:19.426Z,3.38
2023-03-12T19:51:20.859Z,3.37
2023-03-12T19:52:22.403Z,3.36
2023-03-12T19:53:24.390Z,3.35
2023-03-12T19:54:25.914Z,3.34
2023-03-12T19:55:27.347Z,3.35
2023-03-12T19:56:28.826Z,3.36
2023-03-12T19:57:30.815Z,3.36
2023-03-12T19:58:32.424Z,3.36
2023-03-12T19:59:33.827Z,3.37
2023-03-12T20:00:35.922Z,3.37
2023-03-12T20:01:37.417Z,3.37
2023-03-12T20:02:39.290Z,3.37
2023-03-12T20:03:43.511Z,3.37
2023-03-12T20:04:45.376Z,3.38
2023-03-12T20:05:46.856Z,3.37
2023-03-12T20:06:48.405Z,3.38
2023-03-12T20:07:51.620Z,3.37
2023-03-12T20:08:53.213Z,3.36
2023-03-12T20:09:54.787Z,3.36
2023-03-12T20:11:04.708Z,3.35
2023-03-12T20:12:06.282Z,3.34
2023-03-12T20:13:12.162Z,3.34
2023-03-12T20:14:13.766Z,3.33
2023-03-12T20:15:15.436Z,3.32
2023-03-12T20:16:17.618Z,3.31
2023-03-12T20:17:19.212Z,3.30
2023-03-12T20:18:20.658Z,3.29
2023-03-12T20:19:22.269Z,3.28
2023-03-12T20:20:24.686Z,3.28
2023-03-12T20:21:27.296Z,3.28
2023-03-12T20:22:30.501Z,3.27
2023-03-12T20:23:32.226Z,3.26
2023-03-12T20:24:34.436Z,3.26
2023-03-12T20:25:40.593Z,3.25
2023-03-12T20:26:42.061Z,3.25
2023-03-12T20:27:44.286Z,3.25
2023-03-12T20:28:45.850Z,3.24
2023-03-12T20:29:49.231Z,3.24
2023-03-12T20:30:51.310Z,3.25
2023-03-12T20:31:52.819Z,3.24
2023-03-12T20:32:54.487Z,3.24
2023-03-12T20:33:56.076Z,3.24
2023-03-12T20:34:57.590Z,3.23
2023-03-12T20:35:59.271Z,3.23
2023-03-12T20:37:00.733Z,3.23
2023-03-12T20:38:02.655Z,3.23
2023-03-12T20:39:04.662Z,3.22
2023-03-12T20:40:08.162Z,3.22
2023-03-12T20:41:12.745Z,3.21
2023-03-12T20:42:14.349Z,3.21
2023-03-12T20:43:16.262Z,3.20
2023-03-12T20:44:17.847Z,3.20
2023-03-12T20:45:19.638Z,3.20
2023-03-12T20:46:21.665Z,3.20
2023-03-12T20:47:23.351Z,3.20
2023-03-12T20:48:25.282Z,3.20
2023-03-12T20:49:26.808Z,3.20
2023-03-12T20:50:28.424Z,3.20
2023-03-12T20:51:30.653Z,3.19
2023-03-12T20:52:32.353Z,3.20
2023-03-12T20:53:33.876Z,3.20
2023-03-12T20:54:35.437Z,3.20
2023-03-12T20:55:37.768Z,3.19
2023-03-12T20:56:42.896Z,3.20
2023-03-12T20:57:44.442Z,3.19
2023-03-12T20:58:45.956Z,3.19
2023-03-12T20:59:47.638Z,3.18
2023-03-12T21:00:49.559Z,3.17
2023-03-12T21:01:51.103Z,3.16
2023-03-12T21:02:52.782Z,3.15
2023-03-12T21:03:58.065Z,3.15
2023-03-12T21:04:59.557Z,3.15
2023-03-12T21:06:02.290Z,3.14
2023-03-12T21:07:04.029Z,3.14
2023-03-12T21:08:06.102Z,3.14
2023-03-12T21:09:07.604Z,3.14
2023-03-12T21:10:09.848Z,3.13
2023-03-12T21:11:11.338Z,3.13
2023-03-12T21:12:13.483Z,3.13
2023-03-12T21:13:17.451Z,3.14
2023-03-12T21:14:18.943Z,3.14
2023-03-12T21:15:20.444Z,3.14
2023-03-12T21:16:22.061Z,3.14
2023-03-12T21:17:23.757Z,3.13
2023-03-12T21:18:25.526Z,3.12
2023-03-12T21:19:30.650Z,3.12
2023-03-12T21:20:32.159Z,3.11
2023-03-12T21:21:35.736Z,3.10
2023-03-12T21:22:38.371Z,3.10
2023-03-12T21:23:40.103Z,3.09
2023-03-12T21:24:41.650Z,3.09
2023-03-12T21:25:43.123Z,3.09
2023-03-12T21:26:44.703Z,3.09
2023-03-12T21:27:50.933Z,3.09
2023-03-12T21:28:53.585Z,3.06
2023-03-12T21:29:55.250Z,3.05
2023-03-12T21:31:04.639Z,3.03
2023-03-12T21:32:06.365Z,3.02
2023-03-12T21:33:08.093Z,3.01
2023-03-12T21:34:09.943Z,3.00
2023-03-12T21:35:11.479Z,2.99
2023-03-12T21:36:14.064Z,2.98
2023-03-12T21:37:16.234Z,2.97
2023-03-12T21:38:17.757Z,2.96
2023-03-12T21:39:19.588Z,2.95
2023-03-12T21:40:22.175Z,2.95
2023-03-12T21:41:23.656Z,2.93
2023-03-12T21:42:25.279Z,2.92
2023-03-12T21:43:28.549Z,2.91
2023-03-12T21:44:30.059Z,2.89
2023-03-12T21:45:33.540Z,2.88
2023-03-12T21:46:35.318Z,2.87
2023-03-12T21:47:37.115Z,2.86
2023-03-12T21:48:39.354Z,2.85
2023-03-12T21:49:40.932Z,2.84
2023-03-12T21:50:42.461Z,2.84
2023-03-12T21:51:44.868Z,2.83
2023-03-12T21:52:50.168Z,2.83
2023-03-12T21:53:54.088Z,2.83
2023-03-12T21:54:55.628Z,2.83
2023-03-12T21:55:59.003Z,2.83
2023-03-12T21:57:02.836Z,2.83
2023-03-12T21:58:04.711Z,2.84
2023-03-12T21:59:06.486Z,2.84
2023-03-12T22:00:13.499Z,2.83
2023-03-12T22:01:16.801Z,2.84
2023-03-12T22:02:18.379Z,2.83
2023-03-12T22:03:20.029Z,2.83
2023-03-12T22:04:23.043Z,2.83
2023-03-12T22:05:24.596Z,2.83
2023-03-12T22:06:26.952Z,2.83
2023-03-12T22:07:29.451Z,2.83
2023-03-12T22:08:31.851Z,2.84
2023-03-12T22:09:33.640Z,2.84
2023-03-12T22:10:35.542Z,2.85
2023-03-12T22:11:37.083Z,2.84
2023-03-12T22:12:39.333Z,2.84
2023-03-12T22:13:41.130Z,2.85
2023-03-12T22:14:42.676Z,2.85
2023-03-12T22:15:53.071Z,2.85
2023-03-12T22:16:54.640Z,2.84
2023-03-12T22:17:56.210Z,2.84
2023-03-12T22:18:57.933Z,2.84
2023-03-12T22:20:00.352Z,2.84
2023-03-12T22:21:04.618Z,2.83
2023-03-12T22:22:06.148Z,2.83
2023-03-12T22:23:07.786Z,2.82
2023-03-12T22:24:10.124Z,2.82
2023-03-12T22:25:11.663Z,2.81
2023-03-12T22:26:13.908Z,2.81
2023-03-12T22:27:15.414Z,2.80
2023-03-12T22:28:17.745Z,2.79
2023-03-12T22:29:19.205Z,2.79
2023-03-12T22:30:20.957Z,2.78
2023-03-12T22:31:24.794Z,2.78
2023-03-12T22:32:27.793Z,2.78
2023-03-12T22:33:29.384Z,2.77
2023-03-12T22:34:31.158Z,2.77
2023-03-12T22:35:32.929Z,2.76
2023-03-12T22:36:34.557Z,2.76
2023-03-12T22:37:36.083Z,2.76
2023-03-12T22:38:38.337Z,2.75
2023-03-12T22:39:40.367Z,2.74
2023-03-12T22:40:42.273Z,2.72
2023-03-12T22:41:47.566Z,2.72
2023-03-12T22:42:49.918Z,2.71
2023-03-12T22:43:53.812Z,2.71
2023-03-12T22:44:55.359Z,2.70
2023-03-12T22:45:57.082Z,2.70
2023-03-12T22:46:58.736Z,2.70
2023-03-12T22:48:00.315Z,2.69
2023-03-12T22:49:03.425Z,2.68
2023-03-12T22:50:05.501Z,2.69
2023-03-12T22:51:07.232Z,2.69
2023-03-12T22:52:08.960Z,2.68
2023-03-12T22:53:10.485Z,2.68
2023-03-12T22:54:12.128Z,2.68
2023-03-12T22:55:13.970Z,2.68
2023-03-12T22:56:15.747Z,2.68
2023-03-12T22:57:17.571Z,2.68
2023-03-12T22:58:19.046Z,2.68
2023-03-12T22:59:20.511Z,2.68
2023-03-12T23:00:22.350Z,2.68
2023-03-12T23:01:24.144Z,2.67
2023-03-12T23:02:25.708Z,2.67
2023-03-12T23:03:29.409Z,2.66
2023-03-12T23:04:30.951Z,2.66
2023-03-12T23:05:34.118Z,2.66
2023-03-12T23:06:35.891Z,2.66
2023-03-12T23:07:37.519Z,2.66
2023-03-12T23:08:39.507Z,2.66
2023-03-12T23:09:41.156Z,2.66
2023-03-12T23:10:49.276Z,2.66
2023-03-12T23:11:51.035Z,2.67
2023-03-12T23:12:52.558Z,2.67
2023-03-12T23:13:54.294Z,2.68
2023-03-12T23:14:55.787Z,2.68
2023-03-12T23:16:05.675Z,2.68
2023-03-12T23:17:09.051Z,2.67
2023-03-12T23:18:10.763Z,2.69
2023-03-12T23:19:12.261Z,2.70
2023-03-12T23:20:13.843Z,2.69
2023-03-12T23:21:18.541Z,2.68
2023-03-12T23:22:20.504Z,2.67
2023-03-12T23:23:23.204Z,2.66
2023-03-12T23:24:25.350Z,2.65
2023-03-12T23:25:27.051Z,2.65
2023-03-12T23:26:29.014Z,2.64
2023-03-12T23:27:30.882Z,2.64
2023-03-12T23:28:32.444Z,2.64
2023-03-12T23:29:34.749Z,2.65
2023-03-12T23:30:39.731Z,2.64
2023-03-12T23:31:41.439Z,2.62
2023-03-12T23:32:42.990Z,2.61
2023-03-12T23:33:44.875Z,2.59
2023-03-12T23:34:46.590Z,2.58
2023-03-12T23:35:55.412Z,2.56
2023-03-12T23:36:57.148Z,2.54
2023-03-12T23:37:58.588Z,2.52
2023-03-12T23:39:00.061Z,2.51
2023-03-12T23:40:01.594Z,2.50
2023-03-12T23:41:08.647Z,2.49
2023-03-12T23:42:10.103Z,2.49
2023-03-12T23:43:12.504Z,2.49
2023-03-12T23:44:14.030Z,2.48
2023-03-12T23:45:15.546Z,2.46
2023-03-12T23:46:18.492Z,2.44
2023-03-12T23:47:20.381Z,2.42
2023-03-12T23:48:21.892Z,2.40
2023-03-12T23:49:23.474Z,2.37
2023-03-12T23:50:24.906Z,2.36
2023-03-12T23:54:28.490Z,2.26
2023-03-12T23:55:29.972Z,2.27
2023-03-12T23:56:37.065Z,2.27
2023-03-12T23:57:38.576Z,2.26
2023-03-12T23:58:40.528Z,2.25
2023-03-12T23:59:42.278Z,2.24
